Avery, Iowa
Current Conditions -  °F | °C
As of 3:53 AM on Friday 31 Oct 2014 (Local Time) from KOTM Reporting Station
Overcast Overcast  
Wind Chill: 29°   Ceiling: 4400
Heat Index: 39°   Visibility: 10mi
Dew Point: 27°   Wind: 22mph
Humidity: 62%   Direction: 330°NNW
Pressure: 30.28"   Gusts: 35mph
Location:  41.0299°N, 92.7795°W
Report Text: KOTM 310853Z AUTO 33019G30KT 10SM OVC044 04/M03 A3028 RMK AO2 PK WND 35033/0800 RAE15 SLP256 P0000 60000 T00391028 53030
Loading
Personal Weather Stations






























Interactive Weather Map
Tropical Storm Tracking
New forecast layout! Learn more

10-Day Weather Forecast

Advertisements
Track Severe Weather on mobile